METAR Data
IDs: Format: Raw Decoded Include TAF

Data at: 0625 UTC 23 Feb 2019

KOSA 230615Z AUTO 00000KT 3/4SM OVC003 11/11 A2990 RMK AO1 T01110105
KOSA 230555Z AUTO 00000KT 3/4SM OVC003 11/11 A2991 RMK AO1 P0002 60009 T01120105 10115 20103 401150066
KOSA 230535Z AUTO 00000KT 1SM OVC003 11/11 A2991 RMK AO1 P0002 T01120105
KOSA 230515Z AUTO 00000KT 1 1/4SM OVC003 11/11 A2992 RMK AO1 P0001 T01130106
KOSA 230455Z AUTO 00000KT 5SM OVC005 12/11 A2992 RMK AO1 P0003 T01150107
KOSA 230435Z AUTO 00000KT 5SM BKN003 OVC007 11/11 A2992 RMK AO1 P0002 T01140107
KOSA 230415Z AUTO 09004KT 2SM OVC003 11/11 A2993 RMK AO1 P0002 T01120105
KOSA 230355Z AUTO 10003KT 4SM OVC003 11/10 A2993 RMK AO1 T01110104
KOSA 230335Z AUTO 12004KT 2 1/2SM OVC003 11/10 A2994 RMK AO1 T01100103
KOSA 230315Z AUTO 13003KT 4SM OVC003 11/10 A2993 RMK AO1 T01100103
KOSA 230255Z AUTO 11003KT 2SM OVC003 11/10 A2993 RMK AO1 P0001 60004 T01080101
KOSA 230235Z AUTO 00000KT 2SM OVC003 11/10 A2993 RMK AO1 P0001 T01060100
KOSA 230215Z AUTO 11003KT 3SM OVC003 11/10 A2994 RMK AO1 P0001 T01050098
KOSA 230155Z AUTO 00000KT 5SM BKN003 OVC011 11/10 A2994 RMK AO1 P0002 T01050096
KOSA 230135Z AUTO 09003KT 7SM OVC005 10/10 A2994 RMK AO1 P0001 T01040096
KOSA 230115Z AUTO 00000KT 5SM OVC005 10/10 A2994 RMK AO1 T01040096
KOSA 230055Z AUTO 00000KT 5SM OVC005 10/10 A2995 RMK AO1 P0001 T01030095
KOSA 230035Z AUTO 00000KT 5SM OVC005 11/10 A2994 RMK AO1 P0001 T01050095
KOSA 230015Z AUTO 11003KT 7SM OVC005 11/10 A2994 RMK AO1 T01050095
KOSA 222355Z AUTO 00000KT 10SM OVC005 11/10 A2994 RMK AO1 P0001 60020 T01050095 10107 20091
KOSA 222335Z AUTO 09003KT 10SM OVC007 11/10 A2995 RMK AO1 P0001 T01050095
KOSA 222315Z AUTO 05003KT 10SM OVC005 11/10 A2994 RMK AO1 P0001 T01050095
KOSA 222255Z AUTO 07006KT 4SM OVC005 11/09 A2995 RMK AO1 P0004 T01060094
KOSA 222235Z AUTO 07008KT 10SM OVC005 11/10 A2995 RMK AO1 T01070095
KOSA 222215Z AUTO 07007KT 10SM OVC005 11/09 A2995 RMK AO1 T01050094
KOSA 222155Z AUTO 06006KT 10SM OVC005 10/09 A2996 RMK AO1 P0012 T01000090
KOSA 222135Z AUTO 06004KT 2SM OVC005 10/09 A2997 RMK AO1 VIS 1V5 P0011 T00970087
KOSA 222115Z AUTO 09004KT 7SM OVC005 10/09 A2998 RMK AO1 P0001 T00960086
KOSA 222055Z AUTO 06004KT 7SM OVC005 10/09 A2998 RMK AO1 P0002 60003 T00950085
KOSA 222035Z AUTO 06004KT 4SM 09/08 A2998 RMK AO1 P0001 T00920083
KOSA 222015Z AUTO 05005KT 3SM OVC004 09/08 A3000 RMK AO1 T00920083
KOSA 221955Z AUTO 03004KT 1 3/4SM OVC004 09/08 A3000 RMK AO1 P0001 T00920083
KOSA 221935Z AUTO 03004KT 4SM OVC004 10/09 A3002 RMK AO1 P0001 T00950086
KOSA 221915Z AUTO 05005KT 2SM OVC004 09/09 A3004 RMK AO1 P0001 T00930085
KOSA 221855Z AUTO 00000KT 1 3/4SM OVC004 09/08 A3006 RMK AO1 T00930084
KOSA 221835Z AUTO 00000KT 1 1/2SM OVC004 09/09 A3005 RMK AO1 T00940085
KOSA 221815Z AUTO 07006KT 2SM OVC004 09/08 A3006 RMK AO1 T00930082
KOSA 221755Z AUTO 00000KT 10SM OVC004 09/08 A3008 RMK AO1 P0002 60003 T00920080 10093 20072
KOSA 221735Z AUTO 00000KT 10SM OVC004 09/08 A3007 RMK AO1 P0002 T00920081
KOSA 221715Z AUTO 30010KT 4SM OVC004 09/08 A3007 RMK AO1 P0002 T00920083
KOSA 221655Z AUTO 00000KT 5SM OVC004 09/08 A3008 RMK AO1 P0001 T00870077
KOSA 221635Z AUTO 10009KT 3SM OVC004 09/08 A3004 RMK AO1 T00850075
KOSA 221615Z AUTO 10010KT 7SM OVC004 09/07 A3002 RMK AO1 T00850074
KOSA 221555Z AUTO 10009KT 7SM OVC004 08/07 A3005 RMK AO1 T00830071
KOSA 221535Z AUTO 11006KT 7SM OVC004 08/07 A3006 RMK AO1 T00820070
KOSA 221515Z AUTO 09010KT 7SM OVC004 08/07 A3005 RMK AO1 T00810069
KOSA 221455Z AUTO 07007KT 10SM OVC004 08/07 A3007 RMK AO1 T00800068
KOSA 221435Z AUTO 08006KT 10SM OVC004 08/07 A3007 RMK AO1 T00780067
KOSA 221415Z AUTO 08005KT 5SM OVC004 08/07 A3007 RMK AO1 T00750066
KOSA 221355Z AUTO 10007KT 4SM OVC004 08/07 A3005 RMK AO1 T00750065
KOSA 221335Z AUTO 05005KT 3SM OVC004 07/06 A3004 RMK AO1 T00730063
KOSA 221315Z AUTO 07005KT 4SM OVC004 07/06 A3005 RMK AO1 T00730063
KOSA 221255Z AUTO 07006KT 4SM OVC006 07/06 A3005 RMK AO1 T00730063
KOSA 221235Z AUTO 08007KT 4SM OVC008 07/06 A3005 RMK AO1 T00730062
KOSA 221215Z AUTO 06004KT 10SM OVC008 08/06 A3006 RMK AO1 T00750060
KOSA 221155Z AUTO 34004KT 10SM OVC008 08/06 A3008 RMK AO1 70013 T00750060 10076 20066
KOSA 221135Z AUTO 31011KT 10SM OVC006 08/06 A3007 RMK AO1 T00750060
KOSA 221115Z AUTO 09006KT 10SM OVC006 08/06 A3003 RMK AO1 T00750061
KOSA 221055Z AUTO 10007KT 10SM OVC006 07/06 A3002 RMK AO1 T00720060
KOSA 221035Z AUTO 09008KT 10SM OVC006 07/06 A3002 RMK AO1 T00710060
KOSA 221015Z AUTO 08005KT 7SM OVC006 07/06 A3003 RMK AO1 T00710060
KOSA 220955Z AUTO 06006KT 5SM OVC006 07/06 A3003 RMK AO1 T00710060
KOSA 220935Z AUTO 08008KT 4SM OVC008 07/06 A3003 RMK AO1 T00720061
KOSA 220915Z AUTO 08006KT 5SM OVC008 08/06 A3006 RMK AO1 T00750060
KOSA 220855Z AUTO 11003KT 10SM OVC008 08/06 A3007 RMK AO1 T00750058
KOSA 220835Z AUTO 34004KT 10SM OVC008 08/06 A3008 RMK AO1 T00760059
KOSA 220815Z AUTO 06003KT 10SM OVC008 08/06 A3006 RMK AO1 T00750057
KOSA 220755Z AUTO 11008KT 10SM OVC008 08/06 A3006 RMK AO1 T00750056
KOSA 220735Z AUTO 12011G15KT 10SM OVC008 08/06 A3006 RMK AO1 T00750056
KOSA 220715Z AUTO 08007KT 10SM OVC008 07/06 A3005 RMK AO1 T00710055
KOSA 220655Z AUTO 10015G19KT 10SM OVC006 07/06 A3003 RMK AO1 T00680055
KOSA 220635Z AUTO 08011G17KT 10SM OVC006 07/06 A3005 RMK AO1 T00670055
KOSA 220615Z AUTO 09007KT 7SM OVC006 07/06 A3006 RMK AO1 T00660055
KOSA 220555Z AUTO 07009KT 7SM OVC008 07/06 A3006 RMK AO1 T00660055 10080 20066 400850008
KOSA 220535Z AUTO 08007KT 5SM OVC008 07/05 A3009 RMK AO1 T00660053
KOSA 220515Z AUTO 06006KT 7SM OVC008 07/05 A3009 RMK AO1 T00680052
KOSA 220455Z AUTO 08004KT 10SM OVC008 07/05 A3009 RMK AO1 T00700050
KOSA 220435Z AUTO 09008KT 10SM OVC010 07/05 A3008 RMK AO1 T00700048
KOSA 220415Z AUTO 08007KT 10SM OVC010 07/05 A3009 RMK AO1 T00710049
KOSA 220355Z AUTO 08011KT 10SM OVC012 07/05 A3008 RMK AO1 T00710048
KOSA 220335Z AUTO 09007KT 10SM OVC012 07/05 A3008 RMK AO1 T00710047
KOSA 220315Z AUTO 08009KT 10SM OVC012 07/05 A3005 RMK AO1 T00720048
KOSA 220255Z AUTO 08007KT 10SM OVC012 07/05 A3007 RMK AO1 T00730047
KOSA 220235Z AUTO 09008KT 10SM OVC012 08/05 A3006 RMK AO1 T00750047
KOSA 220215Z AUTO 08009G19KT 10SM BKN012 OVC029 08/05 A3004 RMK AO1 T00750046
KOSA 220155Z AUTO 09010KT 10SM OVC012 08/05 A3005 RMK AO1 T00750050
KOSA 220135Z AUTO 08008KT 10SM OVC010 08/05 A3005 RMK AO1 T00750051
KOSA 220115Z AUTO 08008KT 10SM OVC012 08/05 A3005 RMK AO1 T00750051
KOSA 220055Z AUTO 08007KT 10SM OVC014 08/05 A3005 RMK AO1 T00760050
KOSA 220035Z AUTO 09008KT 10SM BKN014 OVC034 08/05 A3003 RMK AO1 T00770049
KOSA 220015Z AUTO 09008G16KT 10SM SCT014 OVC036 08/05 A3003 RMK AO1 T00780048
KOSA 212355Z AUTO 10009KT 10SM SCT014 OVC040 08/05 A3002 RMK AO1 60010 T00800049 10085 20073
KOSA 212335Z AUTO 09010G15KT 10SM SCT014 BKN042 08/05 A3003 RMK AO1 T00800049
KOSA 212315Z AUTO 10010G16KT 10SM BKN014 BKN044 08/05 A3002 RMK AO1 T00800051
KOSA 212255Z AUTO 10013G17KT 10SM BKN014 BKN044 08/05 A3003 RMK AO1 T00800050
KOSA 212235Z AUTO 07011G14KT 10SM SCT014 OVC046 08/05 A3004 RMK AO1 T00800050
KOSA 212215Z AUTO 08010KT 10SM SCT014 BKN048 08/05 A3004 RMK AO1 T00800050
KOSA 212155Z AUTO 08009G14KT 10SM SCT014 BKN050 08/05 A3004 RMK AO1 T00800051
KOSA 212135Z AUTO 08012KT 10SM SCT014 BKN050 08/05 A3004 RMK AO1 T00800051
KOSA 212115Z AUTO 07011G14KT 10SM SCT014 BKN050 08/05 A3005 RMK AO1 T00790048
KOSA 212055Z AUTO 07011KT 10SM SCT050 08/05 A3005 RMK AO1 60010 T00800048
KOSA 212035Z AUTO 07013G17KT 10SM SCT050 08/05 A3004 RMK AO1 T00830049
KOSA 212015Z AUTO 07010G14KT 10SM CLR 08/05 A3003 RMK AO1 T00780050
KOSA 211955Z AUTO 07010KT 10SM SCT010 SCT060 08/05 A3005 RMK AO1 P0002 T00750052
KOSA 211935Z AUTO 04007KT 7SM SCT010 SCT017 SCT060 07/05 A3007 RMK AO1 P0002 T00730050
KOSA 211915Z AUTO 06009KT 7SM SCT010 SCT060 08/05 A3009 RMK AO1 P0001 T00750053
KOSA 211855Z AUTO 03007KT 10SM SCT007 SCT012 SCT060 08/06 A3008 RMK AO1 P0008 T00750056
KOSA 211835Z AUTO 03006KT 5SM SCT007 SCT012 08/06 A3011 RMK AO1 P0006 T00750057